Time;durP1;ratioP1;P1;durP2;ratioP2;P2;SDS_P1;SDS_P2;PMS_P1;PMS_P2;Temp;Humidity;BMP_temperature;BMP_pressure;BME280_temperature;BME280_humidity;BME280_pressure;Samples;Min_cycle;Max_cycle;Signal;HPM_P1;HPM_P2
2022/12/04 00:02:21;;;;;;;52.40;37.90;;;;;;;;;;5116516;28;20208;-84
2022/12/04 00:04:49;;;;;;;45.95;39.42;;;;;;;;;;5115982;28;20232;-85
2022/12/04 00:07:16;;;;;;;53.65;40.05;;;;;;;;;;5114294;28;20227;-85
2022/12/04 00:09:45;;;;;;;57.03;40.10;;;;;;;;;;5112755;28;20184;-85
2022/12/04 00:12:13;;;;;;;47.20;39.17;;;;;;;;;;5115093;28;20203;-84
2022/12/04 00:14:41;;;;;;;52.15;39.92;;;;;;;;;;5109822;28;20199;-84
2022/12/04 00:17:09;;;;;;;49.53;39.72;;;;;;;;;;5107216;28;20206;-84
2022/12/04 00:19:36;;;;;;;44.17;39.38;;;;;;;;;;5103590;28;20206;-84
2022/12/04 00:22:03;;;;;;;49.92;39.10;;;;;;;;;;5103971;28;20222;-84
2022/12/04 00:24:30;;;;;;;55.03;40.50;;;;;;;;;;5103006;28;20265;-84
2022/12/04 00:27:00;;;;;;;51.58;40.60;;;;;;;;;;5104623;28;20295;-84
2022/12/04 00:29:27;;;;;;;47.42;37.40;;;;;;;;;;5104144;28;20203;-84
2022/12/04 00:31:54;;;;;;;48.25;39.75;;;;;;;;;;5104634;28;20187;-84
2022/12/04 00:34:21;;;;;;;55.22;42.38;;;;;;;;;;5104664;28;20675;-85
2022/12/04 00:36:49;;;;;;;53.75;39.80;;;;;;;;;;5107430;28;20236;-84
2022/12/04 00:39:17;;;;;;;43.80;35.35;;;;;;;;;;5106132;28;20215;-85
2022/12/04 00:41:45;;;;;;;38.53;32.70;;;;;;;;;;5107106;28;20203;-85
2022/12/04 00:44:13;;;;;;;50.45;40.30;;;;;;;;;;5101621;28;20215;-85
2022/12/04 00:46:40;;;;;;;56.25;40.67;;;;;;;;;;5101661;28;20225;-85
2022/12/04 00:49:07;;;;;;;47.72;37.38;;;;;;;;;;5105573;28;20237;-85
2022/12/04 00:51:34;;;;;;;52.55;40.03;;;;;;;;;;5107460;28;20204;-84
2022/12/04 00:54:01;;;;;;;47.97;38.70;;;;;;;;;;5106157;28;20208;-85
2022/12/04 00:56:29;;;;;;;51.72;39.08;;;;;;;;;;5106144;28;20287;-83
2022/12/04 00:58:57;;;;;;;59.05;42.83;;;;;;;;;;5105383;28;20229;-84
2022/12/04 01:01:27;;;;;;;56.55;40.47;;;;;;;;;;5106531;28;20216;-85
2022/12/04 01:03:54;;;;;;;51.75;41.67;;;;;;;;;;5102716;28;20217;-84
2022/12/04 01:06:22;;;;;;;49.30;38.08;;;;;;;;;;5099002;28;20238;-84
2022/12/04 01:08:50;;;;;;;46.45;36.70;;;;;;;;;;5099046;28;20674;-84
2022/12/04 01:11:18;;;;;;;47.33;39.38;;;;;;;;;;5099457;28;20207;-84
2022/12/04 01:13:45;;;;;;;47.38;38.50;;;;;;;;;;5103459;28;20207;-84
2022/12/04 01:16:16;;;;;;;47.75;39.28;;;;;;;;;;5103791;28;20229;-84
2022/12/04 01:18:44;;;;;;;44.80;37.88;;;;;;;;;;5101798;28;20694;-84
2022/12/04 01:21:12;;;;;;;45.75;35.47;;;;;;;;;;5101223;28;20210;-85
2022/12/04 01:23:39;;;;;;;47.45;38.30;;;;;;;;;;5100348;28;20207;-85
2022/12/04 01:26:06;;;;;;;50.25;38.88;;;;;;;;;;5099539;28;20218;-84
2022/12/04 01:28:33;;;;;;;38.70;34.35;;;;;;;;;;5099602;28;20210;-84
2022/12/04 01:31:01;;;;;;;46.15;38.75;;;;;;;;;;5097162;28;20211;-84
2022/12/04 01:33:29;;;;;;;46.05;38.72;;;;;;;;;;5095493;28;20205;-84
2022/12/04 01:35:58;;;;;;;57.28;38.22;;;;;;;;;;5095763;28;20226;-84
2022/12/04 01:38:26;;;;;;;44.80;37.38;;;;;;;;;;5096064;28;20238;-84
2022/12/04 01:40:53;;;;;;;47.80;37.25;;;;;;;;;;5095658;28;20214;-84
2022/12/04 01:43:20;;;;;;;45.35;36.83;;;;;;;;;;5095464;28;20209;-85
2022/12/04 01:45:49;;;;;;;46.97;37.50;;;;;;;;;;5095506;28;20223;-85
2022/12/04 01:48:22;;;;;;;47.30;37.38;;;;;;;;;;5095732;28;20222;-84
2022/12/04 01:50:51;;;;;;;47.92;37.60;;;;;;;;;;5095925;28;20193;-84
2022/12/04 01:53:20;;;;;;;49.13;38.05;;;;;;;;;;5095094;28;20214;-84
2022/12/04 01:55:48;;;;;;;44.75;39.17;;;;;;;;;;5095300;28;20238;-84
2022/12/04 01:58:15;;;;;;;46.72;37.13;;;;;;;;;;5095392;28;20204;-84
2022/12/04 02:00:43;;;;;;;45.53;36.85;;;;;;;;;;5095804;28;20691;-84
2022/12/04 02:03:11;;;;;;;39.28;34.45;;;;;;;;;;5095413;28;20210;-85
2022/12/04 02:05:38;;;;;;;44.28;38.60;;;;;;;;;;5095988;28;20223;-85
2022/12/04 02:08:05;;;;;;;38.95;34.65;;;;;;;;;;5095705;28;20228;-84
2022/12/04 02:10:40;;;;;;;48.03;35.10;;;;;;;;;;5096047;28;20199;-85
2022/12/04 02:13:10;;;;;;;43.45;37.63;;;;;;;;;;5096306;28;20195;-85
2022/12/04 02:15:41;;;;;;;38.38;33.38;;;;;;;;;;5096414;28;20717;-84
2022/12/04 02:18:15;;;;;;;46.05;36.83;;;;;;;;;;5095871;28;20238;-84
2022/12/04 02:20:48;;;;;;;45.58;35.92;;;;;;;;;;5096069;28;20204;-85
2022/12/04 02:23:30;;;;;;;48.75;38.97;;;;;;;;;;5096034;28;20191;-85
2022/12/04 02:26:02;;;;;;;47.45;40.50;;;;;;;;;;5096018;28;20249;-84
2022/12/04 02:28:33;;;;;;;51.47;37.55;;;;;;;;;;5096764;28;20219;-84
2022/12/04 02:31:01;;;;;;;42.85;32.63;;;;;;;;;;5097221;28;20203;-84
2022/12/04 02:33:31;;;;;;;37.03;33.47;;;;;;;;;;5096184;28;20208;-84
2022/12/04 02:36:01;;;;;;;45.42;37.65;;;;;;;;;;5096736;28;20228;-84
2022/12/04 02:38:33;;;;;;;47.60;37.28;;;;;;;;;;5099430;28;20276;-84
2022/12/04 02:41:04;;;;;;;29.92;27.17;;;;;;;;;;5100995;28;20276;-84
2022/12/04 02:43:36;;;;;;;44.67;35.90;;;;;;;;;;5101620;28;20195;-84
2022/12/04 02:46:06;;;;;;;41.47;36.03;;;;;;;;;;5101779;28;20224;-84
2022/12/04 02:48:35;;;;;;;37.80;33.13;;;;;;;;;;5101618;28;20227;-85
2022/12/04 02:51:02;;;;;;;43.58;36.35;;;;;;;;;;5101535;28;20211;-85
2022/12/04 02:53:32;;;;;;;41.85;34.83;;;;;;;;;;5101124;28;20206;-85
2022/12/04 02:56:00;;;;;;;44.33;37.38;;;;;;;;;;5100878;28;20253;-84
2022/12/04 02:58:30;;;;;;;41.47;35.42;;;;;;;;;;5101492;28;20204;-84
2022/12/04 03:01:00;;;;;;;31.35;28.23;;;;;;;;;;5101995;28;20202;-84
2022/12/04 03:03:28;;;;;;;45.17;38.08;;;;;;;;;;5100483;28;20192;-85
2022/12/04 03:05:58;;;;;;;40.63;34.28;;;;;;;;;;5100364;28;20234;-84
2022/12/04 03:08:27;;;;;;;42.15;35.80;;;;;;;;;;5100762;28;20220;-85
2022/12/04 03:10:56;;;;;;;40.10;34.50;;;;;;;;;;5101066;28;20211;-84
2022/12/04 03:13:25;;;;;;;43.15;35.70;;;;;;;;;;5100745;28;20616;-84
2022/12/04 03:15:53;;;;;;;40.30;35.30;;;;;;;;;;5100098;28;20236;-85
2022/12/04 03:18:23;;;;;;;42.65;35.03;;;;;;;;;;5100213;28;20203;-84
2022/12/04 03:20:54;;;;;;;47.20;35.20;;;;;;;;;;5100906;28;20213;-84
2022/12/04 03:23:24;;;;;;;37.65;33.55;;;;;;;;;;5100567;28;20203;-85
2022/12/04 03:25:54;;;;;;;40.50;32.60;;;;;;;;;;5100426;28;20223;-84
2022/12/04 03:28:24;;;;;;;45.05;34.90;;;;;;;;;;5099710;28;20258;-85
2022/12/04 03:30:55;;;;;;;42.72;36.70;;;;;;;;;;5099693;28;20190;-84
2022/12/04 03:33:28;;;;;;;39.80;32.00;;;;;;;;;;5099832;28;20187;-85
2022/12/04 03:35:59;;;;;;;42.35;34.75;;;;;;;;;;5099698;28;20229;-84
2022/12/04 03:38:32;;;;;;;39.88;33.72;;;;;;;;;;5099397;28;20211;-84
2022/12/04 03:41:02;;;;;;;35.83;32.05;;;;;;;;;;5099983;28;20205;-85
2022/12/04 03:43:32;;;;;;;49.72;34.55;;;;;;;;;;5100062;28;20643;-85
2022/12/04 03:46:04;;;;;;;39.63;32.92;;;;;;;;;;5099604;28;20229;-85
2022/12/04 03:48:39;;;;;;;36.08;31.73;;;;;;;;;;5099297;28;20207;-85
2022/12/04 03:51:09;;;;;;;43.08;35.53;;;;;;;;;;5100010;28;20183;-85
2022/12/04 03:53:37;;;;;;;40.60;33.80;;;;;;;;;;5099616;28;20583;-85
2022/12/04 03:56:08;;;;;;;39.38;33.17;;;;;;;;;;5100254;28;20226;-85
2022/12/04 03:58:37;;;;;;;36.80;32.85;;;;;;;;;;5100489;28;20184;-84
2022/12/04 04:01:07;;;;;;;37.08;33.08;;;;;;;;;;5100906;28;20208;-85
2022/12/04 04:03:38;;;;;;;36.35;32.47;;;;;;;;;;5100853;28;20191;-85
2022/12/04 04:06:08;;;;;;;33.33;29.92;;;;;;;;;;5101312;28;20222;-85
2022/12/04 04:08:37;;;;;;;36.53;30.95;;;;;;;;;;5100588;28;20578;-85
2022/12/04 04:11:09;;;;;;;41.17;33.10;;;;;;;;;;5101190;28;20214;-85
2022/12/04 04:24:45;;;;;;;37.05;33.08;;;;;;;;;;5101565;28;20197;-85
2022/12/04 04:27:12;;;;;;;42.78;35.17;;;;;;;;;;5101427;28;20236;-85
2022/12/04 04:29:39;;;;;;;38.00;33.80;;;;;;;;;;5102087;28;20207;-85
2022/12/04 04:32:11;;;;;;;39.40;34.22;;;;;;;;;;5101898;28;20202;-85
2022/12/04 04:34:44;;;;;;;37.75;33.75;;;;;;;;;;5102118;28;20652;-85
2022/12/04 04:37:15;;;;;;;43.72;34.60;;;;;;;;;;5101529;28;20745;-85
2022/12/04 04:39:46;;;;;;;46.90;34.13;;;;;;;;;;5102140;28;20189;-85
2022/12/04 04:42:17;;;;;;;38.35;34.22;;;;;;;;;;5102799;28;20218;-85
2022/12/04 04:44:46;;;;;;;33.80;30.17;;;;;;;;;;5101438;28;20210;-84
2022/12/04 04:47:15;;;;;;;34.67;30.85;;;;;;;;;;5100716;28;20224;-85
2022/12/04 04:49:46;;;;;;;38.20;31.40;;;;;;;;;;5101877;28;20229;-85
2022/12/04 04:52:13;;;;;;;35.50;30.30;;;;;;;;;;5101719;28;20210;-85
2022/12/04 04:54:41;;;;;;;34.75;31.15;;;;;;;;;;5101290;28;20202;-85
2022/12/04 04:57:08;;;;;;;36.42;32.47;;;;;;;;;;5102039;28;20226;-84
2022/12/04 04:59:35;;;;;;;36.03;30.63;;;;;;;;;;5101794;28;20210;-85
2022/12/04 05:02:02;;;;;;;35.08;31.10;;;;;;;;;;5101060;28;20678;-85
2022/12/04 05:04:29;;;;;;;38.67;32.22;;;;;;;;;;5101367;28;20202;-84
2022/12/04 05:06:58;;;;;;;41.00;32.95;;;;;;;;;;5102117;28;20581;-85
2022/12/04 05:09:25;;;;;;;37.65;31.75;;;;;;;;;;5102786;28;20203;-85
2022/12/04 05:11:52;;;;;;;35.15;29.70;;;;;;;;;;5102521;28;20210;-85
2022/12/04 05:14:19;;;;;;;35.65;31.73;;;;;;;;;;5102724;28;20213;-85
2022/12/04 05:16:47;;;;;;;34.97;31.48;;;;;;;;;;5101770;28;20235;-85
2022/12/04 05:22:00;;;;;;;37.45;32.13;;;;;;;;;;5101854;28;20202;-85
2022/12/04 05:24:27;;;;;;;35.33;30.27;;;;;;;;;;5102239;28;20203;-84
2022/12/04 05:26:54;;;;;;;37.97;30.48;;;;;;;;;;5101365;28;20229;-85
2022/12/04 05:29:21;;;;;;;31.67;28.48;;;;;;;;;;5102025;28;20211;-85
2022/12/04 05:31:48;;;;;;;34.03;30.45;;;;;;;;;;5102714;28;20218;-85
2022/12/04 05:34:15;;;;;;;35.10;31.30;;;;;;;;;;5100918;28;20215;-85
2022/12/04 05:36:42;;;;;;;32.63;29.25;;;;;;;;;;5101749;28;20231;-85
2022/12/04 05:39:11;;;;;;;36.95;30.70;;;;;;;;;;5101796;28;20543;-85
2022/12/04 05:41:38;;;;;;;34.55;30.90;;;;;;;;;;5101724;28;20551;-85
2022/12/04 05:44:05;;;;;;;32.83;29.52;;;;;;;;;;5100997;28;20211;-85
2022/12/04 05:46:32;;;;;;;35.40;31.73;;;;;;;;;;5101471;28;20249;-84
2022/12/04 05:48:59;;;;;;;35.17;31.58;;;;;;;;;;5102228;28;20226;-85
2022/12/04 05:51:26;;;;;;;36.72;31.60;;;;;;;;;;5101942;28;20204;-84
2022/12/04 05:53:53;;;;;;;37.28;30.80;;;;;;;;;;5102202;28;20210;-84
2022/12/04 05:56:22;;;;;;;33.75;30.42;;;;;;;;;;5100624;28;20230;-85
2022/12/04 05:58:49;;;;;;;37.03;31.27;;;;;;;;;;5101274;28;20218;-85
2022/12/04 06:01:18;;;;;;;38.63;30.75;;;;;;;;;;5101644;28;20202;-85
2022/12/04 06:03:45;;;;;;;34.78;29.77;;;;;;;;;;5101060;28;20562;-84
2022/12/04 06:06:13;;;;;;;34.25;30.55;;;;;;;;;;5101252;28;20286;-84
2022/12/04 06:08:40;;;;;;;33.55;30.02;;;;;;;;;;5101674;28;20230;-84
2022/12/04 06:11:10;;;;;;;34.40;30.77;;;;;;;;;;5102208;28;20203;-85
2022/12/04 06:13:40;;;;;;;34.72;29.95;;;;;;;;;;5101753;28;20218;-85
2022/12/04 06:16:07;;;;;;;33.67;30.17;;;;;;;;;;5102169;28;20232;-85
2022/12/04 06:18:35;;;;;;;30.50;27.65;;;;;;;;;;5104618;28;20199;-84
2022/12/04 06:21:02;;;;;;;34.08;30.75;;;;;;;;;;5102380;28;20201;-85
2022/12/04 06:23:29;;;;;;;36.38;32.55;;;;;;;;;;5101626;28;20207;-85
2022/12/04 06:25:56;;;;;;;33.80;30.15;;;;;;;;;;5101862;28;20226;-84
2022/12/04 06:28:23;;;;;;;34.47;30.50;;;;;;;;;;5101821;28;20224;-85
2022/12/04 06:30:52;;;;;;;32.65;29.25;;;;;;;;;;5102522;28;20209;-85
2022/12/04 06:33:19;;;;;;;33.05;30.05;;;;;;;;;;5101828;28;20215;-84
2022/12/04 06:35:46;;;;;;;31.23;28.17;;;;;;;;;;5100936;28;20224;-85
2022/12/04 06:38:13;;;;;;;32.30;28.42;;;;;;;;;;5101791;28;20210;-85
2022/12/04 06:40:40;;;;;;;29.65;26.75;;;;;;;;;;5102078;28;20211;-84
2022/12/04 06:43:07;;;;;;;32.22;28.70;;;;;;;;;;5100977;28;20229;-85
2022/12/04 06:45:34;;;;;;;30.98;27.88;;;;;;;;;;5100702;28;20220;-85
2022/12/04 06:48:03;;;;;;;30.70;27.60;;;;;;;;;;5101782;28;20214;-85
2022/12/04 06:50:30;;;;;;;31.85;28.75;;;;;;;;;;5101188;28;20199;-85
2022/12/04 06:52:57;;;;;;;28.17;25.92;;;;;;;;;;5101432;28;20216;-85
2022/12/04 06:55:24;;;;;;;30.27;27.30;;;;;;;;;;5101364;28;20231;-84
2022/12/04 06:57:51;;;;;;;32.80;29.65;;;;;;;;;;5101255;28;20203;-85
2022/12/04 07:00:18;;;;;;;31.15;28.10;;;;;;;;;;5102365;28;20195;-85
2022/12/04 07:02:46;;;;;;;30.85;27.75;;;;;;;;;;5102035;28;20283;-85
2022/12/04 07:05:14;;;;;;;30.63;27.75;;;;;;;;;;5100811;28;20223;-85
2022/12/04 07:07:41;;;;;;;30.70;28.08;;;;;;;;;;5101355;28;20739;-84
2022/12/04 07:10:09;;;;;;;32.90;29.55;;;;;;;;;;5101549;28;20210;-85
2022/12/04 07:12:36;;;;;;;29.52;26.85;;;;;;;;;;5100969;28;20211;-85
2022/12/04 07:15:03;;;;;;;30.23;27.42;;;;;;;;;;5100227;28;20215;-85
2022/12/04 07:17:30;;;;;;;32.53;29.35;;;;;;;;;;5101075;28;20210;-85
2022/12/04 07:19:57;;;;;;;31.63;28.55;;;;;;;;;;5101176;28;20554;-85
2022/12/04 07:22:27;;;;;;;32.15;29.13;;;;;;;;;;5100939;28;20211;-85
2022/12/04 07:24:54;;;;;;;33.05;29.70;;;;;;;;;;5103259;28;20215;-85
2022/12/04 07:27:21;;;;;;;30.48;27.67;;;;;;;;;;5101193;28;20206;-85
2022/12/04 07:29:48;;;;;;;32.88;29.60;;;;;;;;;;5100643;28;20228;-85
2022/12/04 07:32:15;;;;;;;30.63;27.73;;;;;;;;;;5102147;28;20209;-85
2022/12/04 07:34:42;;;;;;;32.83;29.42;;;;;;;;;;5100510;28;20664;-84
2022/12/04 07:37:09;;;;;;;33.55;30.02;;;;;;;;;;5104452;28;20242;-85
2022/12/04 07:39:38;;;;;;;32.97;29.55;;;;;;;;;;5105111;28;20202;-84
2022/12/04 07:42:05;;;;;;;30.58;27.90;;;;;;;;;;5101302;28;20602;-85
2022/12/04 07:44:32;;;;;;;30.98;28.17;;;;;;;;;;5097852;28;20206;-84
2022/12/04 07:46:59;;;;;;;31.45;28.60;;;;;;;;;;5097609;28;20226;-84
2022/12/04 07:49:27;;;;;;;29.25;26.50;;;;;;;;;;5097686;28;20328;-84
2022/12/04 07:51:54;;;;;;;31.08;28.17;;;;;;;;;;5098137;28;20211;-81
2022/12/04 07:54:21;;;;;;;30.50;27.65;;;;;;;;;;5097467;28;20745;-82
2022/12/04 07:56:50;;;;;;;32.17;29.15;;;;;;;;;;5098703;28;20335;-82
2022/12/04 07:59:17;;;;;;;31.52;28.52;;;;;;;;;;5098036;28;20544;-83
2022/12/04 08:01:44;;;;;;;32.88;29.55;;;;;;;;;;5097935;28;20577;-83
2022/12/04 08:04:12;;;;;;;33.63;30.00;;;;;;;;;;5097645;28;20199;-83
2022/12/04 08:06:39;;;;;;;34.40;30.13;;;;;;;;;;5097904;28;20228;-82
2022/12/04 08:09:06;;;;;;;32.10;28.90;;;;;;;;;;5097285;28;20280;-83
2022/12/04 08:11:34;;;;;;;30.27;27.77;;;;;;;;;;5098041;28;20211;-83
2022/12/04 08:14:04;;;;;;;29.05;26.55;;;;;;;;;;5097232;28;20564;-83
2022/12/04 08:16:32;;;;;;;32.28;28.98;;;;;;;;;;5097852;28;20231;-83
2022/12/04 08:18:59;;;;;;;31.30;28.40;;;;;;;;;;5097957;28;20219;-83
2022/12/04 08:21:27;;;;;;;32.55;29.35;;;;;;;;;;5098096;28;20204;-83
2022/12/04 08:23:56;;;;;;;31.15;28.42;;;;;;;;;;5100958;28;20728;-83
2022/12/04 08:26:25;;;;;;;32.50;29.40;;;;;;;;;;5102659;28;20225;-83
2022/12/04 08:28:54;;;;;;;32.40;29.17;;;;;;;;;;5103471;28;20219;-83
2022/12/04 08:31:24;;;;;;;32.40;29.30;;;;;;;;;;5103986;28;20227;-83
2022/12/04 08:33:51;;;;;;;31.50;28.50;;;;;;;;;;5103069;28;20212;-83
2022/12/04 08:36:19;;;;;;;32.45;29.65;;;;;;;;;;5101409;28;20231;-83
2022/12/04 08:38:47;;;;;;;34.08;30.60;;;;;;;;;;5102766;28;20194;-83
2022/12/04 08:41:16;;;;;;;32.47;29.58;;;;;;;;;;5104229;28;20211;-83
2022/12/04 08:43:43;;;;;;;32.65;29.25;;;;;;;;;;5103586;28;20204;-83
2022/12/04 08:46:11;;;;;;;33.17;29.88;;;;;;;;;;5103143;28;20227;-83
2022/12/04 08:48:40;;;;;;;35.63;32.05;;;;;;;;;;5102834;28;20968;-83
2022/12/04 08:51:07;;;;;;;33.80;30.42;;;;;;;;;;5104571;28;20666;-83
2022/12/04 08:53:36;;;;;;;28.10;25.50;;;;;;;;;;5102656;28;20241;-84
2022/12/04 08:56:03;;;;;;;33.95;30.65;;;;;;;;;;5104004;28;20244;-83
2022/12/04 08:58:30;;;;;;;35.53;31.92;;;;;;;;;;5103267;28;20218;-83
2022/12/04 09:01:03;;;;;;;28.45;26.17;;;;;;;;;;5102641;28;20204;-83
2022/12/04 09:03:30;;;;;;;32.83;29.83;;;;;;;;;;5102548;28;20192;-83
2022/12/04 09:06:01;;;;;;;38.28;32.67;;;;;;;;;;5101846;28;20222;-82
2022/12/04 09:08:28;;;;;;;36.35;32.63;;;;;;;;;;5102242;28;20225;-83
2022/12/04 09:10:55;;;;;;;35.85;31.90;;;;;;;;;;5102621;28;20230;-83
2022/12/04 09:13:22;;;;;;;34.95;31.48;;;;;;;;;;5102405;28;20214;-83
2022/12/04 09:15:49;;;;;;;30.10;27.27;;;;;;;;;;5101892;28;20228;-82
2022/12/04 09:18:16;;;;;;;35.75;32.03;;;;;;;;;;5102101;28;20210;-83
2022/12/04 09:20:43;;;;;;;36.22;32.75;;;;;;;;;;5106611;28;20209;-83
2022/12/04 09:23:12;;;;;;;43.13;36.50;;;;;;;;;;5101320;28;20203;-83
2022/12/04 09:25:39;;;;;;;40.00;34.65;;;;;;;;;;5103367;28;20234;-82
2022/12/04 09:28:06;;;;;;;39.25;35.22;;;;;;;;;;5101802;28;20200;-82
2022/12/04 09:30:34;;;;;;;35.13;31.58;;;;;;;;;;5102026;28;20215;-83
2022/12/04 09:33:01;;;;;;;42.10;37.53;;;;;;;;;;5101923;28;20207;-84
2022/12/04 09:35:28;;;;;;;33.53;30.30;;;;;;;;;;5102614;28;20252;-83
2022/12/04 09:37:56;;;;;;;41.33;37.13;;;;;;;;;;5102149;28;20220;-82
2022/12/04 09:40:26;;;;;;;38.55;34.72;;;;;;;;;;5101618;28;20210;-83
2022/12/04 09:42:56;;;;;;;42.55;35.13;;;;;;;;;;5102985;28;20243;-84
2022/12/04 09:45:25;;;;;;;39.38;33.60;;;;;;;;;;5102027;28;20227;-83
2022/12/04 09:47:54;;;;;;;37.33;33.42;;;;;;;;;;5101375;28;20286;-82
2022/12/04 09:50:24;;;;;;;40.67;35.15;;;;;;;;;;5103291;28;20235;-83
2022/12/04 09:52:56;;;;;;;37.63;33.47;;;;;;;;;;5102066;28;20208;-80
2022/12/04 09:55:25;;;;;;;39.03;34.70;;;;;;;;;;5103466;28;20223;-81
2022/12/04 09:57:58;;;;;;;41.22;35.03;;;;;;;;;;5104539;28;20207;-85
2022/12/04 10:00:25;;;;;;;38.63;34.50;;;;;;;;;;5103342;28;20189;-83
2022/12/04 10:02:55;;;;;;;42.72;34.88;;;;;;;;;;5101392;28;20548;-83
2022/12/04 10:05:33;;;;;;;40.03;34.70;;;;;;;;;;5100746;28;20231;-83
2022/12/04 10:08:04;;;;;;;40.60;34.35;;;;;;;;;;5101021;28;20208;-83
2022/12/04 10:10:37;;;;;;;43.83;36.75;;;;;;;;;;5103308;28;20230;-83
2022/12/04 10:13:11;;;;;;;39.30;34.05;;;;;;;;;;5108562;28;20257;-83
2022/12/04 10:15:42;;;;;;;41.90;37.40;;;;;;;;;;5102314;28;20223;-84
2022/12/04 10:18:17;;;;;;;41.63;36.83;;;;;;;;;;5106398;28;20297;-83
2022/12/04 10:21:02;;;;;;;42.15;36.08;;;;;;;;;;5109368;28;20196;-83
2022/12/04 10:23:35;;;;;;;48.10;37.17;;;;;;;;;;5102519;28;20214;-83
2022/12/04 10:26:03;;;;;;;39.05;34.83;;;;;;;;;;5107442;28;20231;-83
2022/12/04 10:28:33;;;;;;;46.70;38.83;;;;;;;;;;5103678;28;20211;-81
2022/12/04 10:31:02;;;;;;;41.75;34.97;;;;;;;;;;5103602;28;20231;-82
2022/12/04 10:33:32;;;;;;;40.95;35.92;;;;;;;;;;5107949;28;20207;-82
2022/12/04 10:36:00;;;;;;;55.85;38.92;;;;;;;;;;5101267;28;20227;-83
2022/12/04 10:38:31;;;;;;;44.75;35.40;;;;;;;;;;5109915;28;20215;-82
2022/12/04 10:41:00;;;;;;;46.28;37.50;;;;;;;;;;5104081;28;20193;-83
2022/12/04 10:43:32;;;;;;;49.00;35.85;;;;;;;;;;5100773;28;20208;-83
2022/12/04 10:46:01;;;;;;;52.20;37.25;;;;;;;;;;5097702;28;20589;-83
2022/12/04 10:48:32;;;;;;;39.38;34.50;;;;;;;;;;5080187;28;20250;-82
2022/12/04 10:50:59;;;;;;;46.35;36.78;;;;;;;;;;5085178;28;20220;-84
2022/12/04 10:53:29;;;;;;;50.90;39.88;;;;;;;;;;5100449;28;20267;-80
2022/12/04 10:55:57;;;;;;;41.10;36.70;;;;;;;;;;5109331;28;20223;-82
2022/12/04 10:58:25;;;;;;;51.72;39.90;;;;;;;;;;5106041;28;20546;-83
2022/12/04 11:01:01;;;;;;;48.80;38.42;;;;;;;;;;5108111;28;20203;-85
2022/12/04 11:03:32;;;;;;;47.95;38.00;;;;;;;;;;5109423;28;20210;-84
2022/12/04 11:06:00;;;;;;;54.55;40.50;;;;;;;;;;5108424;28;20257;-85
2022/12/04 11:08:31;;;;;;;47.47;38.08;;;;;;;;;;5101853;28;20267;-85
2022/12/04 11:11:01;;;;;;;50.72;38.25;;;;;;;;;;5102668;28;20727;-80
2022/12/04 11:13:28;;;;;;;52.13;39.58;;;;;;;;;;5106102;28;20198;-80
2022/12/04 11:15:56;;;;;;;50.65;39.40;;;;;;;;;;5108035;28;20242;-80
2022/12/04 11:18:24;;;;;;;39.67;35.42;;;;;;;;;;5104966;28;20205;-81
2022/12/04 11:20:55;;;;;;;49.72;37.63;;;;;;;;;;5106959;28;20206;-83
2022/12/04 11:23:22;;;;;;;49.97;35.63;;;;;;;;;;5110920;28;20215;-83
2022/12/04 11:25:52;;;;;;;56.35;46.55;;;;;;;;;;5110453;28;20258;-84
2022/12/04 11:28:22;;;;;;;63.50;47.95;;;;;;;;;;5110566;28;20200;-81
2022/12/04 11:30:50;;;;;;;53.22;40.03;;;;;;;;;;5099858;28;20231;-81
2022/12/04 11:33:19;;;;;;;53.40;42.08;;;;;;;;;;5100447;28;20208;-82
2022/12/04 11:35:54;;;;;;;47.75;36.78;;;;;;;;;;5098995;28;20255;-84
2022/12/04 11:38:24;;;;;;;48.28;36.80;;;;;;;;;;5102021;28;20317;-86
2022/12/04 11:40:52;;;;;;;41.30;33.88;;;;;;;;;;5103159;28;20203;-83
2022/12/04 11:43:20;;;;;;;48.65;38.30;;;;;;;;;;5100771;28;20214;-82
2022/12/04 11:45:55;;;;;;;46.72;39.22;;;;;;;;;;5102148;28;20711;-82
2022/12/04 11:48:22;;;;;;;50.45;40.55;;;;;;;;;;5103967;28;20203;-83
2022/12/04 11:50:54;;;;;;;46.72;38.45;;;;;;;;;;5102083;28;20779;-83
2022/12/04 11:53:25;;;;;;;55.05;42.03;;;;;;;;;;5099693;28;20192;-83
2022/12/04 11:56:07;;;;;;;45.95;37.10;;;;;;;;;;5100663;28;20237;-82
2022/12/04 11:58:46;;;;;;;40.15;35.17;;;;;;;;;;5097706;28;20205;-82
2022/12/04 12:01:20;;;;;;;52.75;44.97;;;;;;;;;;5099249;28;20278;-82
2022/12/04 12:03:57;;;;;;;50.80;41.35;;;;;;;;;;5098827;28;20580;-80
2022/12/04 12:06:30;;;;;;;49.10;39.00;;;;;;;;;;5099134;28;20706;-79
2022/12/04 12:09:19;;;;;;;55.25;42.05;;;;;;;;;;5099302;28;20215;-81
2022/12/04 12:11:49;;;;;;;51.40;39.00;;;;;;;;;;5100750;28;20203;-82
2022/12/04 12:14:20;;;;;;;53.97;41.45;;;;;;;;;;5099388;28;20190;-82
2022/12/04 12:16:52;;;;;;;49.88;40.90;;;;;;;;;;5097635;28;20312;-79
2022/12/04 12:19:29;;;;;;;48.70;39.50;;;;;;;;;;5095913;28;20210;-79
2022/12/04 12:22:00;;;;;;;46.42;38.40;;;;;;;;;;5098525;28;20207;-81
2022/12/04 12:24:30;;;;;;;49.67;39.58;;;;;;;;;;5097276;28;20237;-79
2022/12/04 12:27:07;;;;;;;52.15;41.63;;;;;;;;;;5097047;28;20255;-82
2022/12/04 12:29:47;;;;;;;56.45;40.28;;;;;;;;;;5097095;28;20207;-85
2022/12/04 12:32:26;;;;;;;48.38;38.25;;;;;;;;;;5099360;28;20196;-81
2022/12/04 12:34:53;;;;;;;45.38;37.67;;;;;;;;;;5096684;28;20211;-80
2022/12/04 12:37:23;;;;;;;35.42;32.17;;;;;;;;;;5095156;28;20211;-79
2022/12/04 12:39:57;;;;;;;48.63;37.85;;;;;;;;;;5096958;28;20188;-78
2022/12/04 12:42:27;;;;;;;45.42;37.60;;;;;;;;;;5096810;28;20278;-79
2022/12/04 12:44:56;;;;;;;48.40;38.95;;;;;;;;;;5095069;28;20216;-77
2022/12/04 12:47:26;;;;;;;43.35;37.13;;;;;;;;;;5095765;28;20210;-78
2022/12/04 12:49:56;;;;;;;45.58;35.08;;;;;;;;;;5095781;28;20226;-78
2022/12/04 12:52:28;;;;;;;47.45;38.97;;;;;;;;;;5096490;28;20203;-78
2022/12/04 12:54:59;;;;;;;56.05;39.67;;;;;;;;;;5095986;28;20208;-78
2022/12/04 12:57:29;;;;;;;49.03;38.78;;;;;;;;;;5095647;28;20215;-79
2022/12/04 12:59:58;;;;;;;48.03;39.30;;;;;;;;;;5096199;28;20207;-84
2022/12/04 13:02:28;;;;;;;40.25;35.15;;;;;;;;;;5104382;28;20209;-88
2022/12/04 13:04:57;;;;;;;42.63;36.58;;;;;;;;;;5096096;28;20275;-80
2022/12/04 13:07:28;;;;;;;47.80;39.40;;;;;;;;;;5096289;28;20235;-77
2022/12/04 13:09:59;;;;;;;51.47;41.35;;;;;;;;;;5095224;28;20214;-77
2022/12/04 13:12:27;;;;;;;45.97;38.25;;;;;;;;;;5095255;28;20188;-77
2022/12/04 13:14:54;;;;;;;47.65;38.95;;;;;;;;;;5093567;28;20554;-78
2022/12/04 13:17:23;;;;;;;43.95;38.50;;;;;;;;;;5093516;28;20680;-78
2022/12/04 13:19:52;;;;;;;49.53;37.30;;;;;;;;;;5094169;28;20222;-77
2022/12/04 13:22:23;;;;;;;47.80;39.55;;;;;;;;;;5093864;28;20204;-77
2022/12/04 13:25:00;;;;;;;38.53;34.47;;;;;;;;;;5094634;28;20191;-77
2022/12/04 13:27:32;;;;;;;47.00;39.47;;;;;;;;;;5093900;28;20284;-77
2022/12/04 13:30:05;;;;;;;48.55;38.22;;;;;;;;;;5096567;28;20219;-81
2022/12/04 13:32:47;;;;;;;54.28;40.17;;;;;;;;;;5095606;28;20198;-81
2022/12/04 13:35:20;;;;;;;42.70;38.05;;;;;;;;;;5092357;28;20224;-79
2022/12/04 13:37:54;;;;;;;44.13;39.47;;;;;;;;;;5092591;28;20691;-80
2022/12/04 13:40:42;;;;;;;41.60;36.97;;;;;;;;;;5095584;28;20192;-78
2022/12/04 13:43:20;;;;;;;59.10;43.85;;;;;;;;;;5096318;28;20662;-81
2022/12/04 13:45:48;;;;;;;37.38;33.35;;;;;;;;;;5098027;28;20230;-80
2022/12/04 13:48:26;;;;;;;35.47;32.25;;;;;;;;;;5098002;28;20206;-82
2022/12/04 13:51:01;;;;;;;43.13;36.10;;;;;;;;;;5094844;28;20219;-79
2022/12/04 13:53:32;;;;;;;32.53;29.48;;;;;;;;;;5096074;28;20650;-79
2022/12/04 13:56:00;;;;;;;46.30;39.88;;;;;;;;;;5095399;28;20256;-80
2022/12/04 13:58:30;;;;;;;47.03;40.30;;;;;;;;;;5094134;28;20214;-79
2022/12/04 14:01:01;;;;;;;36.85;33.00;;;;;;;;;;5094846;28;20183;-78
2022/12/04 14:03:31;;;;;;;45.35;37.60;;;;;;;;;;5094801;28;20193;-79
2022/12/04 14:06:04;;;;;;;42.20;37.60;;;;;;;;;;5094824;28;20998;-78
2022/12/04 14:08:32;;;;;;;45.17;36.58;;;;;;;;;;5095025;28;20199;-79
2022/12/04 14:11:01;;;;;;;42.10;35.63;;;;;;;;;;5094765;28;20321;-79
2022/12/04 14:13:35;;;;;;;49.33;39.40;;;;;;;;;;5094352;28;20225;-80
2022/12/04 14:16:07;;;;;;;46.20;39.53;;;;;;;;;;5094674;28;20235;-79
2022/12/04 14:18:34;;;;;;;44.05;34.65;;;;;;;;;;5094861;28;20218;-79
2022/12/04 14:21:03;;;;;;;46.35;37.85;;;;;;;;;;5094431;28;20206;-79
2022/12/04 14:23:35;;;;;;;44.45;36.47;;;;;;;;;;5094189;28;20207;-79
2022/12/04 14:26:04;;;;;;;44.08;37.30;;;;;;;;;;5095222;28;20583;-79
2022/12/04 14:28:41;;;;;;;43.05;35.30;;;;;;;;;;5094849;28;20227;-79
2022/12/04 14:31:15;;;;;;;45.58;39.10;;;;;;;;;;5095463;28;20233;-79
2022/12/04 14:33:44;;;;;;;41.60;34.60;;;;;;;;;;5097295;28;20186;-80
2022/12/04 14:36:16;;;;;;;47.75;37.55;;;;;;;;;;5098876;28;20254;-80
2022/12/04 14:38:44;;;;;;;45.53;37.92;;;;;;;;;;5098965;28;20191;-79
2022/12/04 14:41:12;;;;;;;48.15;38.85;;;;;;;;;;5098910;28;20204;-79
2022/12/04 14:43:41;;;;;;;37.83;33.78;;;;;;;;;;5098241;28;20208;-79